createdAt,value
2019-03-17T00:00:43.189Z,6.40
2019-03-17T00:01:22.635Z,6.40
2019-03-17T00:01:58.282Z,6.40
2019-03-17T00:02:33.747Z,6.40
2019-03-17T00:03:09.114Z,6.40
2019-03-17T00:03:44.794Z,6.40
2019-03-17T00:04:30.997Z,6.40
2019-03-17T00:04:57.329Z,6.40
2019-03-17T00:05:32.795Z,6.40
2019-03-17T00:06:08.276Z,6.40
2019-03-17T00:06:45.756Z,6.40
2019-03-17T00:07:21.356Z,6.40
2019-03-17T00:07:56.936Z,6.40
2019-03-17T00:08:32.409Z,6.40
2019-03-17T00:09:08.658Z,6.40
2019-03-17T00:09:44.374Z,6.40
2019-03-17T00:10:20.008Z,6.40
2019-03-17T00:10:55.770Z,6.40
2019-03-17T00:11:31.347Z,6.50
2019-03-17T00:12:06.851Z,6.40
2019-03-17T00:12:42.308Z,6.40
2019-03-17T00:13:17.987Z,6.50
2019-03-17T00:13:53.535Z,6.50
2019-03-17T00:14:29.116Z,6.50
2019-03-17T00:15:06.452Z,6.50
2019-03-17T00:15:41.935Z,6.50
2019-03-17T00:16:17.315Z,6.50
2019-03-17T00:16:52.827Z,6.50
2019-03-17T00:17:28.368Z,6.50
2019-03-17T00:18:04.015Z,6.50
2019-03-17T00:18:40.714Z,6.50
2019-03-17T00:19:16.308Z,6.50
2019-03-17T00:19:51.849Z,6.60
2019-03-17T00:20:27.548Z,6.60
2019-03-17T00:21:03.076Z,6.60
2019-03-17T00:21:38.547Z,6.60
2019-03-17T00:22:14.094Z,6.60
2019-03-17T00:22:49.551Z,6.60
2019-03-17T00:23:25.127Z,6.60
2019-03-17T00:24:00.755Z,6.60
2019-03-17T00:24:36.148Z,6.60
2019-03-17T00:25:11.687Z,6.60
2019-03-17T00:25:47.013Z,6.60
2019-03-17T00:26:22.568Z,6.60
2019-03-17T00:26:58.049Z,6.60
2019-03-17T00:27:33.437Z,6.60
2019-03-17T00:28:09.135Z,6.60
2019-03-17T00:28:44.609Z,6.60
2019-03-17T00:29:20.154Z,6.60
2019-03-17T00:29:55.668Z,6.60
2019-03-17T00:30:31.369Z,6.60
2019-03-17T00:31:06.875Z,6.60
2019-03-17T00:31:42.611Z,6.60
2019-03-17T00:32:18.370Z,6.60
2019-03-17T00:32:53.769Z,6.60
2019-03-17T00:33:29.742Z,6.60
2019-03-17T00:34:05.395Z,6.60
2019-03-17T00:34:44.330Z,6.60
2019-03-17T00:35:18.368Z,6.60
2019-03-17T00:35:53.769Z,6.60
2019-03-17T00:36:29.473Z,6.60
2019-03-17T00:37:04.890Z,6.60
2019-03-17T00:37:40.588Z,6.60
2019-03-17T00:38:16.049Z,6.60
2019-03-17T00:38:51.447Z,6.60
2019-03-17T00:39:27.075Z,6.60
2019-03-17T00:40:02.796Z,6.60
2019-03-17T00:40:38.368Z,6.60
2019-03-17T00:41:13.884Z,6.60
2019-03-17T00:41:49.409Z,6.60
2019-03-17T00:42:24.870Z,6.60
2019-03-17T00:43:00.535Z,6.70
2019-03-17T00:43:35.987Z,6.60
2019-03-17T00:44:11.414Z,6.60
2019-03-17T00:44:46.853Z,6.70
2019-03-17T00:45:22.389Z,6.70
2019-03-17T00:45:57.843Z,6.70
2019-03-17T00:46:33.268Z,6.70
2019-03-17T00:47:10.808Z,6.70
2019-03-17T00:47:46.054Z,6.70
2019-03-17T00:48:21.708Z,6.70
2019-03-17T00:48:57.316Z,6.80
2019-03-17T00:49:33.029Z,6.70
2019-03-17T00:50:08.554Z,6.80
2019-03-17T00:50:44.215Z,6.70
2019-03-17T00:51:19.588Z,6.80
2019-03-17T00:51:55.092Z,6.80
2019-03-17T00:52:30.429Z,6.80
2019-03-17T00:53:05.988Z,6.80
2019-03-17T00:53:41.291Z,6.80
2019-03-17T00:54:16.808Z,6.80
2019-03-17T00:54:52.348Z,6.80
2019-03-17T00:55:28.239Z,6.80
2019-03-17T00:56:03.830Z,6.80
2019-03-17T00:56:39.509Z,6.80
2019-03-17T00:57:14.989Z,6.80
2019-03-17T00:57:50.475Z,6.80
2019-03-17T00:58:26.289Z,6.80
2019-03-17T00:59:01.875Z,6.80
2019-03-17T00:59:37.337Z,6.80
2019-03-17T01:00:14.256Z,6.80
2019-03-17T01:00:49.569Z,6.80
2019-03-17T01:01:25.050Z,6.80
2019-03-17T01:02:00.440Z,6.80
2019-03-17T01:02:35.950Z,6.80
2019-03-17T01:03:11.669Z,6.80
2019-03-17T01:03:47.135Z,6.90
2019-03-17T01:04:22.728Z,6.90
2019-03-17T01:04:58.227Z,6.90
2019-03-17T01:05:33.791Z,6.90
2019-03-17T01:06:09.289Z,6.90
2019-03-17T01:06:44.674Z,6.90
2019-03-17T01:07:20.088Z,6.90
2019-03-17T01:07:55.807Z,6.90
2019-03-17T01:08:31.307Z,6.90
2019-03-17T01:09:07.788Z,6.90
2019-03-17T01:09:43.351Z,6.90
2019-03-17T01:10:18.770Z,6.90
2019-03-17T01:10:54.275Z,6.90
2019-03-17T01:11:29.987Z,6.90
2019-03-17T01:12:05.803Z,6.90
2019-03-17T01:12:41.367Z,6.90
2019-03-17T01:13:16.867Z,6.90
2019-03-17T01:13:52.187Z,6.90
2019-03-17T01:14:27.691Z,7.00
2019-03-17T01:15:03.268Z,7.00
2019-03-17T01:15:39.007Z,7.00
2019-03-17T01:16:14.551Z,7.00
2019-03-17T01:16:49.970Z,7.00
2019-03-17T01:17:25.568Z,7.00
2019-03-17T01:18:00.876Z,7.00
2019-03-17T01:18:36.355Z,7.00
2019-03-17T01:19:11.784Z,7.00
2019-03-17T01:19:47.187Z,7.00
2019-03-17T01:20:22.815Z,7.00
2019-03-17T01:20:58.218Z,7.00
2019-03-17T01:21:33.890Z,7.10
2019-03-17T01:22:09.249Z,7.10
2019-03-17T01:22:44.795Z,7.10
2019-03-17T01:23:20.208Z,7.10
2019-03-17T01:23:55.710Z,7.10
2019-03-17T01:24:31.252Z,7.10
2019-03-17T01:25:07.134Z,7.20
2019-03-17T01:25:42.467Z,7.20
2019-03-17T01:26:18.005Z,7.20
2019-03-17T01:26:53.488Z,7.20
2019-03-17T01:27:29.068Z,7.10
2019-03-17T01:28:04.466Z,7.20
2019-03-17T01:28:40.055Z,7.20
2019-03-17T01:29:15.571Z,7.20
2019-03-17T01:29:50.988Z,7.10
2019-03-17T01:30:26.368Z,7.10
2019-03-17T01:31:01.908Z,7.10
2019-03-17T01:31:37.263Z,7.10
2019-03-17T01:32:12.788Z,7.00
2019-03-17T01:32:48.327Z,7.10
2019-03-17T01:33:23.768Z,7.10
2019-03-17T01:33:59.315Z,7.00
2019-03-17T01:34:34.800Z,7.10
2019-03-17T01:35:10.494Z,7.10
2019-03-17T01:35:46.149Z,7.10
2019-03-17T01:36:21.851Z,7.10
2019-03-17T01:36:57.430Z,7.10
2019-03-17T01:37:32.951Z,7.10
2019-03-17T01:38:08.468Z,7.10
2019-03-17T01:38:43.884Z,7.10
2019-03-17T01:39:19.527Z,7.10
2019-03-17T01:39:55.027Z,7.20
2019-03-17T01:40:30.570Z,7.10
2019-03-17T01:41:06.153Z,7.20
2019-03-17T01:41:41.942Z,7.20
2019-03-17T01:42:18.583Z,7.20
2019-03-17T01:42:54.450Z,7.20
2019-03-17T01:43:29.850Z,7.20
2019-03-17T01:44:05.588Z,7.30
2019-03-17T01:44:41.188Z,7.30
2019-03-17T01:45:16.687Z,7.30
2019-03-17T01:45:52.351Z,7.30
2019-03-17T01:46:27.875Z,7.30
2019-03-17T01:47:03.567Z,7.30
2019-03-17T01:47:39.095Z,7.40
2019-03-17T01:48:14.547Z,7.40
2019-03-17T01:48:50.428Z,7.40
2019-03-17T01:49:25.874Z,7.40
2019-03-17T01:50:01.467Z,7.40
2019-03-17T01:50:37.091Z,7.40
2019-03-17T01:51:12.627Z,7.40
2019-03-17T01:51:48.000Z,7.40
2019-03-17T01:52:23.610Z,7.40
2019-03-17T01:52:59.148Z,7.50
2019-03-17T01:53:34.574Z,7.50
2019-03-17T01:54:10.091Z,7.50
2019-03-17T01:54:45.649Z,7.50
2019-03-17T01:55:21.291Z,7.50
2019-03-17T01:55:56.747Z,7.50
2019-03-17T01:56:32.315Z,7.50
2019-03-17T01:57:07.710Z,7.50
2019-03-17T01:57:43.427Z,7.60
2019-03-17T01:58:18.957Z,7.50
2019-03-17T01:58:54.470Z,7.60
2019-03-17T01:59:30.069Z,7.60
2019-03-17T02:00:06.449Z,7.60
2019-03-17T02:00:41.950Z,7.60
2019-03-17T02:01:17.555Z,7.60
2019-03-17T02:01:53.235Z,7.60
2019-03-17T02:02:28.607Z,7.60
2019-03-17T02:03:04.316Z,7.60
2019-03-17T02:03:39.810Z,7.60
2019-03-17T02:04:15.247Z,7.60
2019-03-17T02:04:50.808Z,7.60
2019-03-17T02:05:26.349Z,7.60
2019-03-17T02:06:01.967Z,7.70
2019-03-17T02:06:37.267Z,7.70
2019-03-17T02:07:12.935Z,7.60
2019-03-17T02:07:48.467Z,7.60
2019-03-17T02:08:23.972Z,7.70
2019-03-17T02:08:59.635Z,7.60
2019-03-17T02:09:35.552Z,7.70
2019-03-17T02:10:11.356Z,7.70
2019-03-17T02:10:47.229Z,7.70
2019-03-17T02:11:22.956Z,7.70
2019-03-17T02:11:58.573Z,7.70
2019-03-17T02:12:34.194Z,7.70
2019-03-17T02:13:09.755Z,7.70
2019-03-17T02:13:45.681Z,7.70
2019-03-17T02:14:21.316Z,7.70
2019-03-17T02:14:57.208Z,7.80
2019-03-17T02:15:32.652Z,7.80
2019-03-17T02:16:08.170Z,7.80
2019-03-17T02:16:43.748Z,7.80
2019-03-17T02:17:19.208Z,7.80
2019-03-17T02:17:54.758Z,7.80
2019-03-17T02:18:30.386Z,7.80
2019-03-17T02:19:06.011Z,7.80
2019-03-17T02:19:41.808Z,7.80
2019-03-17T02:20:17.611Z,7.80
2019-03-17T02:20:53.269Z,7.80
2019-03-17T02:21:28.868Z,7.80
2019-03-17T02:22:04.555Z,7.80
2019-03-17T02:22:40.128Z,7.80
2019-03-17T02:23:15.597Z,7.80
2019-03-17T02:23:51.128Z,7.80
2019-03-17T02:24:26.767Z,7.80
2019-03-17T02:25:02.254Z,7.80
2019-03-17T02:25:37.987Z,7.80
2019-03-17T02:26:14.010Z,7.90
2019-03-17T02:26:49.516Z,7.80
2019-03-17T02:27:25.187Z,7.80
2019-03-17T02:28:00.811Z,7.80
2019-03-17T02:28:36.515Z,7.80
2019-03-17T02:29:11.950Z,7.90
2019-03-17T02:29:47.276Z,7.90
2019-03-17T02:30:22.916Z,7.90
2019-03-17T02:30:58.647Z,7.90
2019-03-17T02:31:34.194Z,7.90
2019-03-17T02:32:09.908Z,7.90
2019-03-17T02:32:45.737Z,7.90
2019-03-17T02:33:21.088Z,7.90
2019-03-17T02:33:56.556Z,7.90
2019-03-17T02:34:32.138Z,7.90
2019-03-17T02:35:07.775Z,7.90
2019-03-17T02:35:43.405Z,7.90
2019-03-17T02:36:18.930Z,7.90
2019-03-17T02:36:54.627Z,7.90
2019-03-17T02:37:30.378Z,7.90
2019-03-17T02:38:06.000Z,7.90
2019-03-17T02:38:41.770Z,7.90
2019-03-17T02:39:17.090Z,7.90
2019-03-17T02:39:52.753Z,7.90
2019-03-17T02:40:28.175Z,7.90
2019-03-17T02:41:03.833Z,7.80
2019-03-17T02:41:39.449Z,7.90
2019-03-17T02:42:15.008Z,7.90
2019-03-17T02:42:50.471Z,7.90
2019-03-17T02:43:26.118Z,7.90
2019-03-17T02:44:01.469Z,7.90
2019-03-17T02:44:37.188Z,7.90
2019-03-17T02:45:12.728Z,7.90
2019-03-17T02:45:48.332Z,7.90
2019-03-17T02:46:23.810Z,7.90
2019-03-17T02:46:59.471Z,7.90
2019-03-17T02:47:35.176Z,7.90
2019-03-17T02:48:10.927Z,7.90
2019-03-17T02:48:46.361Z,7.90
2019-03-17T02:49:22.091Z,7.90
2019-03-17T02:49:57.612Z,7.90
2019-03-17T02:50:33.089Z,7.90
2019-03-17T02:51:08.628Z,7.90
2019-03-17T02:51:44.133Z,7.90
2019-03-17T02:52:19.646Z,7.90
2019-03-17T02:52:55.267Z,7.90
2019-03-17T02:53:30.922Z,7.90
2019-03-17T02:54:06.704Z,7.90
2019-03-17T02:54:42.091Z,7.90
2019-03-17T02:55:17.635Z,7.90
2019-03-17T02:55:53.207Z,7.90
2019-03-17T02:56:28.609Z,7.90
2019-03-17T02:57:04.108Z,7.90
2019-03-17T02:57:39.568Z,7.90
2019-03-17T02:58:15.096Z,7.90
2019-03-17T02:58:50.675Z,7.90
2019-03-17T02:59:26.096Z,7.90
2019-03-17T03:00:01.718Z,7.90
2019-03-17T03:00:37.410Z,7.90
2019-03-17T03:01:12.835Z,7.90
2019-03-17T03:01:48.454Z,7.90
2019-03-17T03:02:24.036Z,7.90
2019-03-17T03:02:59.535Z,7.90
2019-03-17T03:03:35.202Z,7.90
2019-03-17T03:04:10.869Z,7.90
2019-03-17T03:04:46.354Z,7.90
2019-03-17T03:05:21.694Z,7.90
2019-03-17T03:05:57.221Z,7.90
2019-03-17T03:06:32.847Z,7.90
2019-03-17T03:07:08.412Z,7.90
2019-03-17T03:07:44.076Z,7.90
2019-03-17T03:08:19.591Z,7.90
2019-03-17T03:08:55.009Z,7.90
2019-03-17T03:09:30.649Z,7.90
2019-03-17T03:10:06.469Z,7.90
2019-03-17T03:10:42.030Z,7.90
2019-03-17T03:11:17.589Z,7.90
2019-03-17T03:11:52.988Z,7.90
2019-03-17T03:12:28.895Z,7.90
2019-03-17T03:13:04.626Z,7.90
2019-03-17T03:13:40.631Z,7.90
2019-03-17T03:14:16.149Z,7.90
2019-03-17T03:14:51.734Z,7.90
2019-03-17T03:15:27.349Z,7.90
2019-03-17T03:16:05.781Z,7.90
2019-03-17T03:16:39.921Z,7.90
2019-03-17T03:17:15.488Z,8.00
2019-03-17T03:17:50.969Z,8.00
2019-03-17T03:18:26.337Z,7.90
2019-03-17T03:19:02.053Z,7.90
2019-03-17T03:19:37.574Z,7.90
2019-03-17T03:20:13.029Z,7.90
2019-03-17T03:20:48.551Z,7.90
2019-03-17T03:21:24.015Z,7.90
2019-03-17T03:21:59.507Z,7.90
2019-03-17T03:22:34.839Z,7.90
2019-03-17T03:23:10.650Z,7.90
2019-03-17T03:23:46.187Z,7.90
2019-03-17T03:24:21.990Z,7.90
2019-03-17T03:24:57.531Z,7.90
2019-03-17T03:25:34.190Z,7.90
2019-03-17T03:26:09.774Z,7.90
2019-03-17T03:26:45.408Z,7.90
2019-03-17T03:27:21.312Z,7.90
2019-03-17T03:27:56.871Z,7.90
2019-03-17T03:28:32.354Z,7.90
2019-03-17T03:29:08.075Z,7.90
2019-03-17T03:29:44.116Z,7.90
2019-03-17T03:30:19.796Z,7.90
2019-03-17T03:30:55.299Z,7.90
2019-03-17T03:31:30.915Z,7.90
2019-03-17T03:32:06.446Z,7.90
2019-03-17T03:32:42.075Z,7.90
2019-03-17T03:33:17.672Z,7.90
2019-03-17T03:33:53.352Z,7.90
2019-03-17T03:34:29.077Z,7.90
2019-03-17T03:35:05.076Z,7.80
2019-03-17T03:35:40.786Z,7.80
2019-03-17T03:36:16.332Z,7.80
2019-03-17T03:36:52.081Z,7.80
2019-03-17T03:37:27.667Z,7.80
2019-03-17T03:38:03.288Z,7.80
2019-03-17T03:38:38.899Z,7.80
2019-03-17T03:39:14.616Z,7.80
2019-03-17T03:39:50.272Z,7.80
2019-03-17T03:40:25.958Z,7.80
2019-03-17T03:41:01.619Z,7.80
2019-03-17T03:41:37.416Z,7.80
2019-03-17T03:42:12.856Z,7.80
2019-03-17T03:42:48.498Z,7.80
2019-03-17T03:43:24.033Z,7.80
2019-03-17T03:43:59.691Z,7.80
2019-03-17T03:44:35.192Z,7.80
2019-03-17T03:45:11.071Z,7.80
2019-03-17T03:45:46.562Z,7.80
2019-03-17T03:46:22.270Z,7.80
2019-03-17T03:46:57.829Z,7.70
2019-03-17T03:47:33.563Z,7.70
2019-03-17T03:48:09.116Z,7.70
2019-03-17T03:48:44.838Z,7.70
2019-03-17T03:49:20.732Z,7.70
2019-03-17T03:49:57.296Z,7.70
2019-03-17T03:50:33.126Z,7.70
2019-03-17T03:51:08.959Z,7.70
2019-03-17T03:51:44.603Z,7.70
2019-03-17T03:52:20.327Z,7.70
2019-03-17T03:52:55.882Z,7.70
2019-03-17T03:53:31.582Z,7.70
2019-03-17T03:54:07.097Z,7.70
2019-03-17T03:54:42.855Z,7.60
2019-03-17T03:55:18.460Z,7.70
2019-03-17T03:55:54.742Z,7.60
2019-03-17T03:56:30.359Z,7.60
2019-03-17T03:57:06.069Z,7.60
2019-03-17T03:57:41.573Z,7.70
2019-03-17T03:58:17.088Z,7.60
2019-03-17T03:58:53.004Z,7.60
2019-03-17T03:59:28.546Z,7.60
2019-03-17T04:00:04.103Z,7.60
2019-03-17T04:00:39.926Z,7.60
2019-03-17T04:01:15.541Z,7.60
2019-03-17T04:01:51.058Z,7.70
2019-03-17T04:02:26.780Z,7.70
2019-03-17T04:03:02.259Z,7.70
2019-03-17T04:03:38.216Z,7.70
2019-03-17T04:04:13.754Z,7.70
2019-03-17T04:04:49.421Z,7.60
2019-03-17T04:05:25.093Z,7.60
2019-03-17T04:06:00.772Z,7.60
2019-03-17T04:06:36.264Z,7.60
2019-03-17T04:07:11.850Z,7.50
2019-03-17T04:07:47.843Z,7.50
2019-03-17T04:08:23.560Z,7.50
2019-03-17T04:08:59.182Z,7.50
2019-03-17T04:09:34.671Z,7.40
2019-03-17T04:10:10.877Z,7.40
2019-03-17T04:10:46.429Z,7.30
2019-03-17T04:11:22.191Z,7.30
2019-03-17T04:11:57.718Z,7.20
2019-03-17T04:12:33.240Z,7.20
2019-03-17T04:13:08.880Z,7.10
2019-03-17T04:13:44.588Z,7.10
2019-03-17T04:14:20.233Z,7.10
2019-03-17T04:14:55.920Z,7.00
2019-03-17T04:15:31.403Z,6.90
2019-03-17T04:16:06.960Z,6.90
2019-03-17T04:16:42.548Z,6.80
2019-03-17T04:17:18.192Z,6.80
2019-03-17T04:17:53.911Z,6.80
2019-03-17T04:18:29.542Z,6.70
2019-03-17T04:19:05.162Z,6.70
2019-03-17T04:19:40.621Z,6.60
2019-03-17T04:20:16.499Z,6.60
2019-03-17T04:20:52.057Z,6.50
2019-03-17T04:21:27.692Z,6.50
2019-03-17T04:22:03.292Z,6.40
2019-03-17T04:22:38.880Z,6.40
2019-03-17T04:23:14.450Z,6.40
2019-03-17T04:23:50.140Z,6.30
2019-03-17T04:24:25.897Z,6.30
2019-03-17T04:25:01.470Z,6.30
2019-03-17T04:25:36.927Z,6.30
2019-03-17T04:26:12.635Z,6.30
2019-03-17T04:26:48.307Z,6.30
2019-03-17T04:27:23.902Z,6.30
2019-03-17T04:27:59.544Z,6.30
2019-03-17T04:28:35.079Z,6.30
2019-03-17T04:29:10.733Z,6.30
2019-03-17T04:29:46.426Z,6.30
2019-03-17T04:30:22.093Z,6.30
2019-03-17T04:30:58.021Z,6.30
2019-03-17T04:31:33.798Z,6.30
2019-03-17T04:32:09.422Z,6.30
2019-03-17T04:32:45.094Z,6.30
2019-03-17T04:33:20.730Z,6.30
2019-03-17T04:33:56.248Z,6.30
2019-03-17T04:34:31.804Z,6.30
2019-03-17T04:35:07.644Z,6.30
2019-03-17T04:35:43.393Z,6.30
2019-03-17T04:36:19.053Z,6.30
2019-03-17T04:36:54.693Z,6.30
2019-03-17T04:37:30.334Z,6.30
2019-03-17T04:38:05.973Z,6.30
2019-03-17T04:38:43.884Z,6.30
2019-03-17T04:39:18.954Z,6.30
2019-03-17T04:39:54.529Z,6.30
2019-03-17T04:40:30.119Z,6.20
2019-03-17T04:41:05.716Z,6.20
2019-03-17T04:41:41.293Z,6.20
2019-03-17T04:42:16.827Z,6.20
2019-03-17T04:42:52.386Z,6.10
2019-03-17T04:43:28.003Z,6.10
2019-03-17T04:44:03.461Z,6.00
2019-03-17T04:44:38.990Z,6.00
2019-03-17T04:45:14.592Z,6.00
2019-03-17T04:45:50.103Z,5.90
2019-03-17T04:46:25.603Z,5.90
2019-03-17T04:47:01.262Z,5.90
2019-03-17T04:47:36.765Z,5.80
2019-03-17T04:48:12.275Z,5.80
2019-03-17T04:48:47.854Z,5.70
2019-03-17T04:49:23.431Z,5.70
2019-03-17T04:49:59.082Z,5.70
2019-03-17T04:50:34.722Z,5.60
2019-03-17T04:51:10.290Z,5.60
2019-03-17T04:51:45.766Z,5.60
2019-03-17T04:52:21.517Z,5.50
2019-03-17T04:52:57.109Z,5.50
2019-03-17T04:53:32.583Z,5.50
2019-03-17T04:54:08.214Z,5.40
2019-03-17T04:54:43.760Z,5.40
2019-03-17T04:55:19.292Z,5.30
2019-03-17T04:55:54.811Z,5.30
2019-03-17T04:56:30.688Z,5.30
2019-03-17T04:57:06.205Z,5.30
2019-03-17T04:57:41.811Z,5.20
2019-03-17T04:58:17.268Z,5.20
2019-03-17T04:58:52.779Z,5.10
2019-03-17T04:59:28.323Z,5.10
2019-03-17T05:00:04.059Z,5.10
2019-03-17T05:00:39.593Z,5.10
2019-03-17T05:01:15.241Z,5.10
2019-03-17T05:01:50.927Z,5.00
2019-03-17T05:02:26.445Z,5.00
2019-03-17T05:03:02.047Z,5.00
2019-03-17T05:03:37.663Z,5.00
2019-03-17T05:04:13.219Z,4.90
2019-03-17T05:04:48.688Z,4.90
2019-03-17T05:05:24.153Z,4.90
2019-03-17T05:05:59.691Z,4.90
2019-03-17T05:06:35.222Z,4.90
2019-03-17T05:07:11.317Z,4.80
2019-03-17T05:07:46.911Z,4.80
2019-03-17T05:08:22.532Z,4.80
2019-03-17T05:08:58.095Z,4.80
2019-03-17T05:09:33.631Z,4.80
2019-03-17T05:10:09.252Z,4.80
2019-03-17T05:10:44.980Z,4.80
2019-03-17T05:11:20.392Z,4.70
2019-03-17T05:11:55.823Z,4.70
2019-03-17T05:12:31.451Z,4.70
2019-03-17T05:13:06.901Z,4.70
2019-03-17T05:13:42.371Z,4.70
2019-03-17T05:14:17.875Z,4.70
2019-03-17T05:14:53.376Z,4.70
2019-03-17T05:15:28.828Z,4.60
2019-03-17T05:16:04.449Z,4.70
2019-03-17T05:16:39.940Z,4.70
2019-03-17T05:17:15.728Z,4.60
2019-03-17T05:17:51.510Z,4.60
2019-03-17T05:18:27.031Z,4.60
2019-03-17T05:19:02.643Z,4.60
2019-03-17T05:19:38.210Z,4.60
2019-03-17T05:20:13.852Z,4.70
2019-03-17T05:20:49.720Z,4.60
2019-03-17T05:21:25.400Z,4.60
2019-03-17T05:22:01.202Z,4.60
2019-03-17T05:22:37.000Z,4.60
2019-03-17T05:23:12.720Z,4.70
2019-03-17T05:23:48.379Z,4.60
2019-03-17T05:24:24.011Z,4.60
2019-03-17T05:25:00.026Z,4.70
2019-03-17T05:25:35.587Z,4.70
2019-03-17T05:26:11.222Z,4.70
2019-03-17T05:26:46.856Z,4.70
2019-03-17T05:27:22.453Z,4.70
2019-03-17T05:27:58.222Z,4.80
2019-03-17T05:28:33.808Z,4.80
2019-03-17T05:29:09.503Z,4.80
2019-03-17T05:29:44.976Z,4.80
2019-03-17T05:30:20.701Z,4.80
2019-03-17T05:30:56.188Z,4.80
2019-03-17T05:31:31.920Z,4.90
2019-03-17T05:32:07.690Z,4.90
2019-03-17T05:32:43.429Z,5.00
2019-03-17T05:33:19.406Z,5.00
2019-03-17T05:33:55.213Z,5.10
2019-03-17T05:34:31.015Z,5.10
2019-03-17T05:35:07.379Z,5.20
2019-03-17T05:35:43.055Z,5.30
2019-03-17T05:36:18.911Z,5.30
2019-03-17T05:37:05.437Z,5.40
2019-03-17T05:37:32.066Z,5.50
2019-03-17T05:38:07.787Z,5.50
2019-03-17T05:38:43.397Z,5.60
2019-03-17T05:39:19.003Z,5.60
2019-03-17T05:39:54.746Z,5.70
2019-03-17T05:40:30.588Z,5.80
2019-03-17T05:41:06.836Z,5.80
2019-03-17T05:41:42.495Z,5.90
2019-03-17T05:42:18.309Z,6.00
2019-03-17T05:42:54.062Z,6.10
2019-03-17T05:43:29.636Z,6.10
2019-03-17T05:44:05.301Z,6.20
2019-03-17T05:44:40.986Z,6.20
2019-03-17T05:45:16.750Z,6.30
2019-03-17T05:45:52.531Z,6.30
2019-03-17T05:46:28.321Z,6.40
2019-03-17T05:47:03.981Z,6.40
2019-03-17T05:47:39.925Z,6.50
2019-03-17T05:48:15.506Z,6.60
2019-03-17T05:48:51.391Z,6.60
2019-03-17T05:49:27.013Z,6.70
2019-03-17T05:50:02.546Z,6.80
2019-03-17T05:50:38.111Z,6.90
2019-03-17T05:51:13.772Z,6.90
2019-03-17T05:51:49.332Z,7.00
2019-03-17T05:52:24.781Z,7.10
2019-03-17T05:53:00.381Z,7.20
2019-03-17T05:53:36.021Z,7.30
2019-03-17T05:54:11.655Z,7.30
2019-03-17T05:54:47.325Z,7.40
2019-03-17T05:55:22.839Z,7.50
2019-03-17T05:55:58.421Z,7.50
2019-03-17T05:56:34.138Z,7.60
2019-03-17T05:57:09.648Z,7.70
2019-03-17T05:57:45.111Z,7.80
2019-03-17T05:58:20.838Z,7.80
2019-03-17T05:58:56.495Z,7.90
2019-03-17T05:59:32.076Z,8.00
2019-03-17T06:00:08.568Z,8.10
2019-03-17T06:00:44.170Z,8.20
2019-03-17T06:01:19.747Z,8.20
2019-03-17T06:01:55.395Z,8.30
2019-03-17T06:02:30.867Z,8.30
2019-03-17T06:03:06.682Z,8.40
2019-03-17T06:03:42.557Z,8.50
2019-03-17T06:04:18.504Z,8.60
2019-03-17T06:04:54.279Z,8.60
2019-03-17T06:05:29.907Z,8.70
2019-03-17T06:06:05.519Z,8.80
2019-03-17T06:06:41.039Z,8.80
2019-03-17T06:07:18.852Z,8.90
2019-03-17T06:07:53.879Z,9.00
2019-03-17T06:08:29.660Z,9.10
2019-03-17T06:09:07.268Z,9.20
2019-03-17T06:09:42.879Z,9.20
2019-03-17T06:10:18.363Z,9.30
2019-03-17T06:10:54.103Z,9.20
2019-03-17T06:11:29.948Z,9.20
2019-03-17T06:12:05.466Z,9.20
2019-03-17T06:12:41.188Z,9.20
2019-03-17T06:13:16.841Z,9.20
2019-03-17T06:13:52.429Z,9.30
2019-03-17T06:14:27.969Z,9.40
2019-03-17T06:15:03.587Z,9.50
2019-03-17T06:15:39.239Z,9.50
2019-03-17T06:16:14.789Z,9.40
2019-03-17T06:16:50.310Z,9.40
2019-03-17T06:17:25.829Z,9.40
2019-03-17T06:18:01.373Z,9.50
2019-03-17T06:18:36.949Z,9.60
2019-03-17T06:19:12.773Z,9.60
2019-03-17T06:19:48.398Z,9.60
2019-03-17T06:20:23.852Z,9.70
2019-03-17T06:20:59.426Z,9.60
2019-03-17T06:21:35.052Z,9.60
2019-03-17T06:22:10.494Z,9.70
2019-03-17T06:22:46.014Z,9.70
2019-03-17T06:23:21.624Z,9.80
2019-03-17T06:23:57.131Z,9.90
2019-03-17T06:24:32.885Z,9.90
2019-03-17T06:25:08.606Z,10.00
2019-03-17T06:25:44.256Z,10.00
2019-03-17T06:26:19.834Z,10.00
2019-03-17T06:26:55.394Z,10.10
2019-03-17T06:27:31.027Z,10.10
2019-03-17T06:28:06.530Z,10.30
2019-03-17T06:28:42.107Z,10.20
2019-03-17T06:29:17.934Z,10.30
2019-03-17T06:29:53.473Z,10.40
2019-03-17T06:30:29.143Z,10.50
2019-03-17T06:31:04.654Z,10.50
2019-03-17T06:31:40.221Z,10.60
2019-03-17T06:32:15.859Z,10.60
2019-03-17T06:32:51.344Z,10.50
2019-03-17T06:33:26.887Z,10.60
2019-03-17T06:34:02.427Z,10.60
2019-03-17T06:34:38.037Z,10.60
2019-03-17T06:35:13.553Z,10.60
2019-03-17T06:35:49.188Z,10.50
2019-03-17T06:36:24.632Z,10.50
2019-03-17T06:37:00.248Z,10.60
2019-03-17T06:37:35.998Z,10.70
2019-03-17T06:38:11.775Z,10.80
2019-03-17T06:38:47.526Z,10.90
2019-03-17T06:39:23.047Z,10.90
2019-03-17T06:39:58.655Z,11.00
2019-03-17T06:40:34.191Z,11.10
2019-03-17T06:41:09.550Z,11.20
2019-03-17T06:41:45.090Z,11.20
2019-03-17T06:42:20.701Z,11.20
2019-03-17T06:42:56.223Z,11.20
2019-03-17T06:43:31.908Z,11.20
2019-03-17T06:44:07.594Z,11.30
2019-03-17T06:44:43.136Z,11.30
2019-03-17T06:45:18.761Z,11.40
2019-03-17T06:45:54.291Z,11.50
2019-03-17T06:46:29.830Z,11.50
2019-03-17T06:47:05.994Z,11.40
2019-03-17T06:47:42.501Z,11.50
2019-03-17T06:48:18.314Z,11.50
2019-03-17T06:48:53.921Z,11.50
2019-03-17T06:49:29.448Z,11.60
2019-03-17T06:50:05.411Z,11.60
2019-03-17T06:50:41.148Z,11.60
2019-03-17T06:51:16.678Z,11.70
2019-03-17T06:51:52.170Z,11.70
2019-03-17T06:52:27.850Z,11.70
2019-03-17T06:53:03.221Z,11.80
2019-03-17T06:53:38.939Z,11.90
2019-03-17T06:54:14.524Z,11.90
2019-03-17T06:54:50.314Z,12.00
2019-03-17T06:55:25.919Z,11.80
2019-03-17T06:56:01.547Z,11.80
2019-03-17T06:56:37.167Z,11.70
2019-03-17T06:57:12.771Z,11.70
2019-03-17T06:57:48.553Z,11.40
2019-03-17T06:58:24.085Z,11.50
2019-03-17T06:58:59.973Z,11.30
2019-03-17T06:59:35.572Z,11.00
2019-03-17T07:00:11.495Z,10.90
2019-03-17T07:00:47.537Z,10.70
2019-03-17T07:01:23.071Z,10.60
2019-03-17T07:01:58.593Z,10.60
2019-03-17T07:02:34.378Z,10.70
2019-03-17T07:03:13.700Z,10.80
2019-03-17T07:03:49.598Z,11.00
2019-03-17T07:04:25.224Z,11.10
2019-03-17T07:05:00.690Z,11.00
2019-03-17T07:05:36.200Z,11.00
2019-03-17T07:06:11.730Z,11.10
2019-03-17T07:06:47.293Z,11.30
2019-03-17T07:07:22.818Z,11.40
2019-03-17T07:07:58.586Z,11.40
2019-03-17T07:08:34.103Z,11.40
2019-03-17T07:09:09.903Z,11.40
2019-03-17T07:09:45.619Z,11.30
2019-03-17T07:10:21.091Z,11.50
2019-03-17T07:10:56.618Z,11.50
2019-03-17T07:11:32.432Z,11.70
2019-03-17T07:12:08.041Z,11.70
2019-03-17T07:12:43.598Z,11.90
2019-03-17T07:13:19.016Z,12.00
2019-03-17T07:13:54.655Z,12.10
2019-03-17T07:14:30.190Z,12.10
2019-03-17T07:15:06.266Z,12.20
2019-03-17T07:15:41.834Z,12.20
2019-03-17T07:16:17.457Z,12.40
2019-03-17T07:16:52.970Z,12.50
2019-03-17T07:17:28.856Z,12.60
2019-03-17T07:18:04.494Z,12.60
2019-03-17T07:18:39.990Z,12.70
2019-03-17T07:19:15.719Z,12.70
2019-03-17T07:19:51.270Z,12.80
2019-03-17T07:20:26.779Z,12.80
2019-03-17T07:21:02.253Z,12.70
2019-03-17T07:21:37.670Z,12.70
2019-03-17T07:22:13.205Z,12.60
2019-03-17T07:22:49.032Z,12.80
2019-03-17T07:23:24.690Z,12.60
2019-03-17T07:24:00.052Z,12.60
2019-03-17T07:24:35.612Z,12.60
2019-03-17T07:25:11.372Z,12.60
2019-03-17T07:25:47.065Z,12.60
2019-03-17T07:26:22.552Z,12.80
2019-03-17T07:26:57.663Z,12.90
2019-03-17T07:27:33.246Z,13.00
2019-03-17T07:28:08.759Z,13.20
2019-03-17T07:28:44.328Z,13.10
2019-03-17T07:29:19.827Z,13.00
2019-03-17T07:29:55.325Z,13.10
2019-03-17T07:30:30.984Z,13.20
2019-03-17T07:31:06.567Z,13.20
2019-03-17T07:31:42.258Z,13.40
2019-03-17T07:32:17.895Z,13.50
2019-03-17T07:32:54.435Z,13.30
2019-03-17T07:33:30.055Z,13.40
2019-03-17T07:34:05.463Z,13.40
2019-03-17T07:34:40.735Z,13.50
2019-03-17T07:35:16.446Z,13.50
2019-03-17T07:35:52.047Z,13.40
2019-03-17T07:36:27.643Z,13.50
2019-03-17T07:37:03.143Z,13.50
2019-03-17T07:37:38.611Z,13.60
2019-03-17T07:38:14.211Z,13.80
2019-03-17T07:38:49.945Z,13.90
2019-03-17T07:39:25.645Z,14.20
2019-03-17T07:40:01.213Z,14.20
2019-03-17T07:40:37.024Z,14.20
2019-03-17T07:41:12.437Z,14.10
2019-03-17T07:41:48.249Z,14.20
2019-03-17T07:42:23.575Z,14.10
2019-03-17T07:42:59.485Z,14.00
2019-03-17T07:43:35.176Z,14.00
2019-03-17T07:44:10.895Z,13.70
2019-03-17T07:44:46.522Z,13.60
2019-03-17T07:45:22.296Z,13.50
2019-03-17T07:45:57.862Z,13.40
2019-03-17T07:46:33.218Z,13.30
2019-03-17T07:47:08.746Z,13.30
2019-03-17T07:47:44.160Z,13.30
2019-03-17T07:48:19.797Z,13.50
2019-03-17T07:48:55.158Z,13.50
2019-03-17T07:49:30.676Z,13.70
2019-03-17T07:50:07.777Z,13.80
2019-03-17T07:50:43.150Z,13.80
2019-03-17T07:51:18.591Z,13.90
2019-03-17T07:51:54.263Z,13.90